Sleepy Eye, Minnesota
Current Conditions -  °F | °C
As of 7:34 AM on Tuesday 21 Oct 2014 (Local Time) from KULM Reporting Station
Clear Clear  
Wind Chill: 37°   Ceiling: Unl
Heat Index: 37°   Visibility: 10mi
Dew Point: 37°   Wind: 0mph
Humidity: 100%   Direction: NA
Pressure: 30.15"   Gusts: NA
Location:  44.3°N, 94.72°W
Report Text: KULM 211234Z AUTO 00000KT 10SM CLR 03/03 A3015 RMK AO2
Loading
Personal Weather Stations






























Interactive Weather Map
Tropical Storm Tracking
New forecast layout! Learn more

10-Day Weather Forecast

Advertisements
Track Severe Weather on mobile